Time;durP1;ratioP1;P1;durP2;ratioP2;P2;SDS_P1;SDS_P2;PMS_P1;PMS_P2;Temp;Humidity;BMP_temperature;BMP_pressure;BME280_temperature;BME280_humidity;BME280_pressure;Samples;Min_cycle;Max_cycle;Signal;HPM_P1;HPM_P2
2021/10/25 00:01:07;;;;;;;8.68;3.95;;;6.40;99.90;;;;;;5101701;28;20012;-76
2021/10/25 00:03:33;;;;;;;9.98;4.15;;;6.50;99.90;;;;;;5101752;28;20020;-77
2021/10/25 00:05:59;;;;;;;8.70;3.50;;;6.40;99.90;;;;;;5101891;28;20089;-76
2021/10/25 00:08:24;;;;;;;9.77;3.58;;;6.40;99.90;;;;;;5101611;28;20051;-76
2021/10/25 00:10:50;;;;;;;9.82;3.88;;;6.40;99.90;;;;;;5101078;28;20385;-76
2021/10/25 00:13:19;;;;;;;9.60;3.75;;;6.40;99.90;;;;;;5083221;28;20073;-76
2021/10/25 00:15:44;;;;;;;11.27;4.35;;;8.40;99.90;;;;;;5083061;28;20393;-76
2021/10/25 00:18:10;;;;;;;10.35;3.50;;;6.30;99.90;;;;;;5100657;28;20016;-76
2021/10/25 00:20:36;;;;;;;8.70;3.60;;;6.30;99.90;;;;;;5101273;28;20024;-77
2021/10/25 00:23:03;;;;;;;9.38;4.93;;;6.30;99.90;;;;;;5082812;28;20020;-77
2021/10/25 00:25:29;;;;;;;9.45;4.60;;;6.30;99.90;;;;;;5082592;28;20026;-77
2021/10/25 00:27:55;;;;;;;18.55;4.30;;;6.30;99.90;;;;;;5101542;28;20035;-77
2021/10/25 00:30:21;;;;;;;7.57;3.78;;;6.30;99.90;;;;;;5100983;28;20024;-76
2021/10/25 00:32:46;;;;;;;8.27;3.72;;;6.30;99.90;;;;;;5082757;28;20020;-76
2021/10/25 00:35:12;;;;;;;9.30;3.50;;;6.30;99.90;;;;;;5082999;28;20034;-77
2021/10/25 00:37:38;;;;;;;10.02;3.80;;;6.30;99.90;;;;;;5101002;28;20380;-77
2021/10/25 00:40:05;;;;;;;10.00;4.20;;;6.30;99.90;;;;;;5082651;28;20027;-77
2021/10/25 00:42:30;;;;;;;8.80;3.75;;;6.30;99.90;;;;;;5082451;28;20020;-77
2021/10/25 00:44:56;;;;;;;9.60;3.75;;;6.40;99.90;;;;;;5100699;28;20024;-77
2021/10/25 00:47:21;;;;;;;9.10;4.53;;;6.40;99.90;;;;;;5101244;28;20050;-77
2021/10/25 00:49:47;;;;;;;9.18;4.20;;;6.60;99.90;;;;;;5082528;28;20039;-77
2021/10/25 00:52:14;;;;;;;8.80;3.72;;;6.70;99.90;;;;;;5100560;28;20020;-77
2021/10/25 00:54:40;;;;;;;8.57;3.78;;;6.80;99.90;;;;;;5101026;28;20449;-77
2021/10/25 00:57:06;;;;;;;11.48;4.43;;;6.80;99.90;;;;;;5082673;28;20481;-77
2021/10/25 00:59:32;;;;;;;8.75;4.07;;;6.90;99.90;;;;;;5100632;28;20061;-77
2021/10/25 01:01:59;;;;;;;9.27;4.43;;;7.00;99.90;;;;;;5082932;28;20021;-77
2021/10/25 01:04:25;;;;;;;13.25;3.83;;;7.10;99.90;;;;;;5100100;28;20426;-76
2021/10/25 01:06:51;;;;;;;8.23;3.97;;;7.20;99.90;;;;;;5082324;28;20481;-76
2021/10/25 01:09:17;;;;;;;10.38;4.38;;;7.20;99.90;;;;;;5100558;28;20027;-77
2021/10/25 01:11:44;;;;;;;9.40;3.60;;;7.20;99.90;;;;;;5099812;28;20039;-76
2021/10/25 01:14:10;;;;;;;12.68;4.78;;;7.30;99.90;;;;;;5082190;28;20043;-77
2021/10/25 01:16:36;;;;;;;10.20;4.07;;;7.30;99.90;;;;;;5100665;28;20046;-76
2021/10/25 01:19:01;;;;;;;7.57;3.72;;;7.40;99.90;;;;;;5082042;28;20049;-76
2021/10/25 01:21:27;;;;;;;9.00;3.80;;;7.40;99.90;;;;;;5082067;28;20012;-76
2021/10/25 01:23:54;;;;;;;8.48;4.10;;;7.50;99.90;;;;;;5082293;28;20021;-77
2021/10/25 01:26:22;;;;;;;10.82;4.45;;;7.60;99.90;;;;;;5100379;28;20028;-76
2021/10/25 01:28:53;;;;;;;8.27;3.83;;;8.10;99.90;;;;;;5082029;28;20028;-77
2021/10/25 01:31:20;;;;;;;9.40;4.32;;;7.60;99.90;;;;;;5100167;28;20027;-76
2021/10/25 01:33:48;;;;;;;10.85;4.13;;;7.70;99.90;;;;;;5077678;28;20377;-76
2021/10/25 01:36:14;;;;;;;12.47;4.73;;;7.70;99.90;;;;;;5095344;28;20024;-77
2021/10/25 01:38:41;;;;;;;9.80;3.83;;;7.70;99.90;;;;;;5095187;28;20618;-77
2021/10/25 01:41:07;;;;;;;10.02;3.92;;;7.80;99.90;;;;;;5096088;28;20043;-76
2021/10/25 01:43:34;;;;;;;7.18;3.50;;;7.80;99.90;;;;;;5095401;28;20023;-77
2021/10/25 01:46:00;;;;;;;8.45;4.35;;;7.80;99.90;;;;;;5095254;28;20038;-76
2021/10/25 01:48:26;;;;;;;8.43;3.78;;;7.90;99.90;;;;;;5083815;28;20111;-79
2021/10/25 01:50:51;;;;;;;10.40;3.97;;;7.90;99.90;;;;;;5080749;28;20024;-78
2021/10/25 01:53:17;;;;;;;9.05;3.55;;;7.90;99.90;;;;;;5077035;28;20024;-78
2021/10/25 01:55:43;;;;;;;9.38;4.30;;;7.90;99.90;;;;;;5094976;28;20065;-77
2021/10/25 01:58:08;;;;;;;15.98;3.90;;;7.90;99.90;;;;;;5077239;28;20025;-77
2021/10/25 02:00:36;;;;;;;8.15;3.90;;;8.00;99.90;;;;;;5076735;28;20024;-78
2021/10/25 02:03:02;;;;;;;11.02;4.03;;;8.10;99.90;;;;;;5076937;28;20023;-78
2021/10/25 02:05:27;;;;;;;9.90;4.47;;;8.10;99.90;;;;;;5095034;28;20023;-78
2021/10/25 02:07:53;;;;;;;8.65;3.83;;;8.10;99.90;;;;;;5095496;28;20032;-78
2021/10/25 02:10:19;;;;;;;8.77;3.45;;;8.10;99.90;;;;;;5094996;28;20023;-78
2021/10/25 02:12:44;;;;;;;8.90;3.85;;;8.10;99.90;;;;;;5076659;28;20021;-78
2021/10/25 02:15:10;;;;;;;8.48;3.58;;;8.10;99.90;;;;;;5077728;28;20035;-78
2021/10/25 02:17:36;;;;;;;9.10;3.92;;;8.10;99.90;;;;;;5096722;28;20028;-78
2021/10/25 02:20:03;;;;;;;9.07;3.80;;;8.10;99.90;;;;;;5096534;28;20075;-78
2021/10/25 02:22:28;;;;;;;9.57;4.65;;;8.10;99.90;;;;;;5078187;28;20472;-78
2021/10/25 02:24:54;;;;;;;9.50;3.83;;;8.20;99.90;;;;;;5079164;28;20077;-79
2021/10/25 02:27:20;;;;;;;7.32;3.38;;;8.20;99.90;;;;;;5098237;28;20059;-78
2021/10/25 02:29:46;;;;;;;7.07;3.33;;;8.20;99.90;;;;;;5098853;28;20023;-78
2021/10/25 02:32:15;;;;;;;8.50;3.80;;;8.20;99.90;;;;;;5083974;28;20028;-78
2021/10/25 02:34:42;;;;;;;;;;;8.20;99.90;;;;;;5091505;28;20024;-78
2021/10/25 02:37:08;;;;;;;13.07;3.60;;;8.20;99.90;;;;;;5101559;28;20280;-79
2021/10/25 02:39:34;;;;;;;9.80;4.00;;;8.20;99.90;;;;;;5103537;28;20047;-79
2021/10/25 02:41:59;;;;;;;9.27;3.90;;;8.20;99.90;;;;;;5101143;28;20050;-78
2021/10/25 02:44:25;;;;;;;10.23;4.30;;;8.20;99.90;;;;;;5103945;28;20020;-79
2021/10/25 02:46:55;;;;;;;10.73;3.60;;;8.20;99.90;;;;;;5101063;28;20024;-79
2021/10/25 02:49:21;;;;;;;7.28;3.53;;;8.20;99.90;;;;;;5103224;28;20040;-79
2021/10/25 02:51:47;;;;;;;13.13;3.88;;;8.90;99.90;;;;;;5102049;28;20104;-80
2021/10/25 02:54:13;;;;;;;10.98;3.60;;;8.20;99.90;;;;;;5102017;28;20500;-78
2021/10/25 02:56:38;;;;;;;10.80;3.60;;;8.30;99.90;;;;;;5101549;28;20028;-79
2021/10/25 02:59:10;;;;;;;7.22;3.47;;;8.30;99.90;;;;;;5101250;28;20027;-79
2021/10/25 03:01:37;;;;;;;6.05;3.35;;;8.30;99.90;;;;;;5092582;28;20020;-79
2021/10/25 03:04:07;;;;;;;7.47;3.47;;;8.30;99.90;;;;;;5083642;28;20376;-79
2021/10/25 03:06:33;;;;;;;9.07;3.58;;;8.40;99.90;;;;;;5096593;28;20115;-79
2021/10/25 03:08:59;;;;;;;6.50;3.00;;;9.30;99.90;;;;;;5095851;28;20165;-79
2021/10/25 03:11:25;;;;;;;10.38;3.35;;;8.40;99.90;;;;;;5083422;28;20074;-79
2021/10/25 03:13:51;;;;;;;9.23;3.97;;;8.50;99.90;;;;;;5083701;28;20021;-79
2021/10/25 03:16:17;;;;;;;11.25;3.67;;;8.50;99.90;;;;;;5100126;28;20036;-79
2021/10/25 03:18:43;;;;;;;8.95;2.83;;;8.50;99.90;;;;;;5101950;28;20019;-79
2021/10/25 03:21:08;;;;;;;9.05;3.85;;;8.50;99.90;;;;;;5101826;28;20024;-79
2021/10/25 03:23:35;;;;;;;6.43;3.05;;;8.50;99.90;;;;;;5101926;28;20020;-80
2021/10/25 03:26:01;;;;;;;7.07;3.08;;;8.50;99.90;;;;;;5103087;28;20024;-79
2021/10/25 03:28:27;;;;;;;8.00;3.40;;;8.60;99.90;;;;;;5102414;28;20048;-80
2021/10/25 03:30:53;;;;;;;6.75;3.17;;;8.60;99.90;;;;;;5102881;28;20036;-79
2021/10/25 03:33:19;;;;;;;10.20;3.95;;;8.60;99.90;;;;;;5102732;28;20034;-80
2021/10/25 03:35:45;;;;;;;6.88;3.75;;;8.60;99.90;;;;;;5102526;28;20028;-79
2021/10/25 03:38:13;;;;;;;7.57;2.90;;;8.60;99.90;;;;;;5101601;28;20030;-79
2021/10/25 03:40:40;;;;;;;5.13;2.78;;;8.70;99.90;;;;;;5094555;28;20169;-80
2021/10/25 03:43:06;;;;;;;8.43;3.50;;;8.70;99.90;;;;;;5085016;28;20587;-79
2021/10/25 03:45:37;;;;;;;7.38;3.05;;;8.70;99.90;;;;;;5100641;28;20020;-79
2021/10/25 03:50:43;;;;;;;12.73;2.92;;;8.70;99.90;;;;;;5083240;28;20490;-80
2021/10/25 03:53:17;;;;;;;9.15;4.00;;;8.70;99.90;;;;;;5064929;28;20051;-79
2021/10/25 03:55:56;;;;;;;9.07;3.28;;;8.70;99.90;;;;;;5102544;28;20012;-79
2021/10/25 04:04:31;;;;;;;9.45;4.22;;;8.70;99.90;;;;;;5000927;28;20041;-79
2021/10/25 04:29:11;;;;;;;6.68;3.33;;;8.70;99.90;;;;;;5020932;28;20570;-79
2021/10/25 04:31:37;;;;;;;8.15;3.88;;;8.70;99.90;;;;;;5020548;28;20101;-79
2021/10/25 04:34:02;;;;;;;6.78;3.22;;;8.80;99.90;;;;;;5047555;28;20086;-79
2021/10/25 04:36:28;;;;;;;7.63;3.22;;;8.80;99.90;;;;;;5084503;28;20028;-79
2021/10/25 04:38:54;;;;;;;10.98;3.75;;;8.80;99.90;;;;;;5085578;28;20017;-79
2021/10/25 04:41:20;;;;;;;9.85;3.85;;;8.80;99.90;;;;;;5084906;28;20016;-79
2021/10/25 04:43:46;;;;;;;8.93;3.72;;;8.70;99.90;;;;;;5085924;28;20028;-80
2021/10/25 04:46:11;;;;;;;9.43;4.15;;;8.80;99.90;;;;;;5085609;28;20423;-79
2021/10/25 04:48:38;;;;;;;10.77;3.88;;;8.80;99.90;;;;;;5086150;28;20021;-79
2021/10/25 04:51:03;;;;;;;6.72;3.42;;;8.80;99.90;;;;;;5087305;28;20485;-80
2021/10/25 04:53:30;;;;;;;11.07;3.92;;;8.90;99.90;;;;;;5068350;28;20025;-81
2021/10/25 04:55:56;;;;;;;9.63;4.43;;;8.80;99.90;;;;;;5086353;28;20070;-79
2021/10/25 04:58:21;;;;;;;8.98;3.42;;;8.80;99.90;;;;;;5084770;28;20025;-80
2021/10/25 05:00:47;;;;;;;10.48;4.15;;;8.80;99.90;;;;;;5086394;28;20091;-80
2021/10/25 05:03:12;;;;;;;11.93;3.90;;;8.90;99.90;;;;;;5084558;28;20028;-79
2021/10/25 05:05:38;;;;;;;10.13;3.72;;;8.90;99.90;;;;;;5084664;28;20009;-79
2021/10/25 05:08:04;;;;;;;9.90;3.47;;;8.90;99.90;;;;;;5086067;28;20032;-79
2021/10/25 05:10:30;;;;;;;7.38;3.67;;;8.90;99.90;;;;;;5099966;28;20054;-79
2021/10/25 05:12:55;;;;;;;6.82;3.33;;;8.90;99.90;;;;;;5105816;28;20103;-79
2021/10/25 05:15:21;;;;;;;10.05;3.55;;;8.90;99.90;;;;;;5107023;28;20048;-80
2021/10/25 05:17:49;;;;;;;9.00;3.40;;;8.90;99.90;;;;;;5105683;28;20033;-79
2021/10/25 05:20:15;;;;;;;9.75;4.03;;;8.90;99.90;;;;;;5102389;28;20059;-81
2021/10/25 05:22:40;;;;;;;9.20;3.28;;;8.90;99.90;;;;;;5096428;28;20016;-79
2021/10/25 05:25:06;;;;;;;9.70;4.00;;;8.80;99.90;;;;;;5087868;28;20112;-80
2021/10/25 05:27:31;;;;;;;8.38;3.60;;;8.90;99.90;;;;;;5086881;28;20032;-79
2021/10/25 05:29:57;;;;;;;10.15;4.30;;;8.90;99.90;;;;;;5088113;28;20110;-81
2021/10/25 05:32:23;;;;;;;11.73;4.05;;;8.90;99.90;;;;;;5105699;28;20035;-80
2021/10/25 05:34:48;;;;;;;11.10;3.97;;;8.90;99.90;;;;;;5094869;28;20016;-80
2021/10/25 05:37:14;;;;;;;10.93;3.85;;;11.10;99.90;;;;;;5103971;28;20105;-80
2021/10/25 05:39:39;;;;;;;10.40;4.22;;;8.90;99.90;;;;;;5063270;28;20016;-73
2021/10/25 05:42:08;;;;;;;12.23;4.50;;;8.90;99.90;;;;;;5082712;28;20027;-83
2021/10/25 05:44:34;;;;;;;13.35;5.15;;;8.90;99.90;;;;;;5081792;28;20104;-78
2021/10/25 05:47:00;;;;;;;10.40;5.10;;;8.90;99.90;;;;;;5060950;28;20031;-76
2021/10/25 05:49:27;;;;;;;10.73;5.18;;;8.90;99.90;;;;;;5079523;28;20028;-75
2021/10/25 05:51:52;;;;;;;9.43;4.10;;;8.90;99.90;;;;;;5079434;28;20389;-74
2021/10/25 05:54:18;;;;;;;9.23;4.63;;;8.90;99.90;;;;;;5079168;28;20024;-75
2021/10/25 05:56:46;;;;;;;13.10;5.05;;;8.90;99.90;;;;;;5061253;28;20032;-75
2021/10/25 05:59:11;;;;;;;10.25;4.18;;;8.90;99.90;;;;;;5079531;28;20473;-76
2021/10/25 06:01:58;;;;;;;11.07;4.90;;;8.90;99.90;;;;;;5079734;28;20133;-75
2021/10/25 06:04:25;;;;;;;11.95;4.40;;;9.00;99.90;;;;;;5079830;28;20108;-75
2021/10/25 06:06:51;;;;;;;14.68;4.80;;;9.00;99.90;;;;;;5079321;28;20381;-75
2021/10/25 06:09:16;;;;;;;11.73;4.65;;;9.00;99.90;;;;;;5090118;28;20112;-76
2021/10/25 06:11:42;;;;;;;10.85;4.95;;;9.00;99.90;;;;;;5099496;28;20043;-76
2021/10/25 06:14:10;;;;;;;13.98;5.35;;;9.10;99.90;;;;;;5099055;28;20027;-76
2021/10/25 06:16:38;;;;;;;12.27;4.88;;;9.10;99.90;;;;;;5080753;28;20078;-75
2021/10/25 06:19:05;;;;;;;9.82;4.78;;;9.10;99.90;;;;;;5081541;28;20048;-76
2021/10/25 06:21:33;;;;;;;14.63;4.68;;;9.10;99.90;;;;;;5098980;28;20014;-76
2021/10/25 06:23:59;;;;;;;9.85;4.43;;;9.10;99.90;;;;;;5081578;28;20362;-77
2021/10/25 06:26:27;;;;;;;9.90;4.82;;;9.10;99.90;;;;;;5081177;28;20362;-76
2021/10/25 06:28:52;;;;;;;14.40;5.25;;;9.10;99.90;;;;;;5091293;28;20024;-81
2021/10/25 06:31:19;;;;;;;10.82;5.00;;;9.10;99.90;;;;;;5101462;28;20055;-75
2021/10/25 06:33:46;;;;;;;11.05;4.65;;;9.10;99.90;;;;;;5081025;28;20032;-76
2021/10/25 06:36:12;;;;;;;10.57;5.10;;;9.20;99.90;;;;;;5098788;28;20044;-77
2021/10/25 06:39:09;;;;;;;17.27;4.30;;;9.20;99.90;;;;;;5099605;28;20102;-75
2021/10/25 06:41:27;;;;;;;12.93;5.65;;;9.20;99.90;;;;;;5098037;28;20078;-75
2021/10/25 06:43:53;;;;;;;12.52;4.97;;;9.20;99.90;;;;;;5098824;28;20009;-76
2021/10/25 06:46:19;;;;;;;14.48;4.93;;;9.20;99.90;;;;;;5099056;28;20024;-79
2021/10/25 06:48:45;;;;;;;10.27;4.57;;;9.20;99.90;;;;;;5096781;28;20088;-80
2021/10/25 06:51:11;;;;;;;12.43;5.13;;;9.20;99.90;;;;;;5096970;28;20032;-78
2021/10/25 06:53:37;;;;;;;14.15;5.07;;;9.20;99.90;;;;;;5093075;28;20020;-78
2021/10/25 06:56:03;;;;;;;13.90;5.53;;;9.20;99.90;;;;;;5093720;28;20028;-78
2021/10/25 06:58:28;;;;;;;12.60;5.05;;;9.30;99.90;;;;;;5092315;28;20085;-78
2021/10/25 07:00:58;;;;;;;14.98;5.05;;;9.30;99.90;;;;;;5092613;28;20012;-77
2021/10/25 07:03:24;;;;;;;16.58;5.50;;;9.30;99.90;;;;;;5092544;28;20020;-77
2021/10/25 07:05:49;;;;;;;13.95;5.43;;;9.30;99.90;;;;;;5093754;28;20073;-78
2021/10/25 07:08:15;;;;;;;14.13;4.22;;;9.30;99.90;;;;;;5092538;28;20016;-78
2021/10/25 07:10:41;;;;;;;14.82;4.65;;;9.30;99.90;;;;;;5092490;28;20032;-77
2021/10/25 07:13:07;;;;;;;24.48;5.00;;;9.30;99.90;;;;;;5093661;28;20020;-78
2021/10/25 07:15:33;;;;;;;15.10;4.95;;;9.30;99.90;;;;;;5093512;28;20028;-78
2021/10/25 08:06:39;;;;;;;16.17;7.13;;;9.70;99.90;;;;;;5093435;28;20058;-77
2021/10/25 08:09:11;;;;;;;15.52;6.15;;;9.70;99.90;;;;;;5094057;28;20103;-77
2021/10/25 08:14:14;;;;;;;12.82;6.53;;;9.80;99.90;;;;;;5097401;28;20032;-77
2021/10/25 08:16:49;;;;;;;14.38;6.30;;;9.80;99.90;;;;;;5095817;28;20024;-77
2021/10/25 08:19:24;;;;;;;13.27;5.78;;;9.80;99.90;;;;;;5097586;28;20380;-77
2021/10/25 08:21:56;;;;;;;14.93;6.38;;;9.90;99.90;;;;;;5096927;28;20016;-77
2021/10/25 08:24:23;;;;;;;19.42;6.38;;;9.90;99.90;;;;;;5095467;28;20020;-78
2021/10/25 08:26:50;;;;;;;16.90;6.80;;;9.90;99.90;;;;;;5095516;28;20028;-77
2021/10/25 08:29:17;;;;;;;12.75;6.25;;;9.90;99.90;;;;;;5095486;28;20027;-78
2021/10/25 08:31:47;;;;;;;14.80;6.22;;;10.00;99.90;;;;;;5096729;28;20016;-78
2021/10/25 08:42:12;;;;;;;11.90;5.57;;;10.00;99.90;;;;;;5096674;28;20115;-77
2021/10/25 08:44:39;;;;;;;13.68;5.93;;;10.00;99.90;;;;;;5096297;28;20460;-78
2021/10/25 08:47:06;;;;;;;11.95;5.47;;;10.00;99.90;;;;;;5095001;28;20027;-78
2021/10/25 08:49:32;;;;;;;14.95;5.28;;;10.00;99.90;;;;;;5095260;28;20464;-77
2021/10/25 08:51:59;;;;;;;11.75;5.00;;;10.00;99.90;;;;;;5096122;28;20044;-77
2021/10/25 08:54:25;;;;;;;12.65;4.68;;;10.10;99.90;;;;;;5096325;28;20431;-77
2021/10/25 08:56:50;;;;;;;13.75;4.97;;;10.10;99.90;;;;;;5094845;28;20126;-77
2021/10/25 08:59:16;;;;;;;14.85;5.30;;;10.10;99.90;;;;;;5096066;28;20016;-78
2021/10/25 09:01:42;;;;;;;13.88;5.50;;;10.10;99.90;;;;;;5096192;28;20031;-77
2021/10/25 09:04:12;;;;;;;12.45;4.90;;;10.10;99.90;;;;;;5096537;28;20020;-77
2021/10/25 09:06:56;;;;;;;9.15;4.55;;;10.10;99.90;;;;;;5094610;28;20044;-77
2021/10/25 09:09:23;;;;;;;15.23;5.18;;;10.20;99.90;;;;;;5096558;28;20150;-77
2021/10/25 09:12:09;;;;;;;14.30;4.65;;;10.20;99.90;;;;;;5094763;28;20020;-77
2021/10/25 09:14:35;;;;;;;11.73;5.32;;;10.20;99.90;;;;;;5095934;28;20047;-76
2021/10/25 09:17:04;;;;;;;10.32;4.30;;;10.30;99.90;;;;;;5096000;28;20084;-76
2021/10/25 09:19:35;;;;;;;16.60;5.47;;;10.30;99.90;;;;;;5097568;28;20384;-76
2021/10/25 09:22:15;;;;;;;12.00;4.60;;;10.30;99.90;;;;;;5095974;28;20495;-77
2021/10/25 09:24:49;;;;;;;13.52;4.47;;;10.30;99.90;;;;;;5094384;28;20028;-78
2021/10/25 09:27:14;;;;;;;10.45;4.40;;;10.30;99.90;;;;;;5095672;28;20385;-78
2021/10/25 09:29:45;;;;;;;12.82;4.30;;;10.30;99.90;;;;;;5094246;28;20016;-77
2021/10/25 09:32:14;;;;;;;11.07;4.60;;;10.30;99.90;;;;;;5095758;28;20032;-77
2021/10/25 09:34:47;;;;;;;15.68;5.70;;;10.30;99.90;;;;;;5094156;28;20020;-77
2021/10/25 09:37:18;;;;;;;11.63;4.40;;;10.30;99.90;;;;;;5095352;28;20016;-77
2021/10/25 09:42:35;;;;;;;13.27;5.38;;;10.40;99.90;;;;;;5095355;28;20028;-79
2021/10/25 09:50:54;;;;;;;10.02;4.43;;;10.40;99.90;;;;;;5095777;28;20031;-78
2021/10/25 09:53:45;;;;;;;13.30;5.32;;;10.40;99.90;;;;;;5095053;28;20027;-76
2021/10/25 09:56:13;;;;;;;15.23;5.95;;;10.50;99.90;;;;;;5094876;28;20020;-77
2021/10/25 09:58:54;;;;;;;13.55;5.63;;;10.60;99.90;;;;;;5093639;28;20105;-78
2021/10/25 10:01:25;;;;;;;9.13;4.93;;;10.70;99.90;;;;;;5093588;28;20020;-78
2021/10/25 10:03:52;;;;;;;10.82;5.07;;;10.80;99.90;;;;;;5095260;28;20032;-78
2021/10/25 10:06:19;;;;;;;12.73;5.32;;;10.90;99.90;;;;;;5093785;28;20019;-77
2021/10/25 10:08:45;;;;;;;11.60;4.65;;;11.00;99.90;;;;;;5094757;28;20032;-77
2021/10/25 10:11:12;;;;;;;14.70;4.85;;;11.10;99.90;;;;;;5093334;28;20026;-76
2021/10/25 10:13:40;;;;;;;17.73;5.75;;;11.20;99.90;;;;;;5093286;28;20489;-78
2021/10/25 10:16:07;;;;;;;13.15;5.43;;;11.30;99.90;;;;;;5094471;28;20020;-77
2021/10/25 10:18:34;;;;;;;19.13;6.85;;;11.40;99.90;;;;;;5093487;28;20021;-78
2021/10/25 10:21:01;;;;;;;23.40;7.30;;;11.50;99.90;;;;;;5094604;28;20066;-78
2021/10/25 10:23:27;;;;;;;14.73;6.97;;;11.50;99.90;;;;;;5093349;28;20042;-77
2021/10/25 10:25:56;;;;;;;13.10;5.68;;;11.50;99.90;;;;;;5093029;28;20020;-76
2021/10/25 10:28:42;;;;;;;15.65;6.53;;;11.60;99.90;;;;;;5093037;28;20013;-78
2021/10/25 10:31:25;;;;;;;17.15;6.45;;;11.00;99.90;;;;;;5092971;28;20103;-77
2021/10/25 10:33:58;;;;;;;15.88;6.97;;;11.60;99.90;;;;;;5094055;28;20063;-77
2021/10/25 10:36:34;;;;;;;14.52;7.10;;;11.60;99.90;;;;;;5092721;28;20031;-77
2021/10/25 10:39:10;;;;;;;16.80;7.03;;;11.60;99.90;;;;;;5094039;28;20042;-77
2021/10/25 10:41:37;;;;;;;19.52;7.95;;;11.60;99.90;;;;;;5093998;28;20073;-77
2021/10/25 10:44:11;;;;;;;18.73;6.97;;;11.60;99.90;;;;;;5093963;28;20076;-77
2021/10/25 10:46:59;;;;;;;16.15;8.45;;;11.70;99.90;;;;;;5093997;28;20028;-78
2021/10/25 10:49:42;;;;;;;17.13;8.38;;;11.70;99.90;;;;;;5092666;28;20392;-78
2021/10/25 10:52:37;;;;;;;19.45;8.77;;;11.70;99.90;;;;;;5092550;28;20024;-77
2021/10/25 10:55:22;;;;;;;16.55;6.95;;;11.70;99.90;;;;;;5093354;28;20114;-77
2021/10/25 11:00:30;;;;;;;18.63;8.52;;;11.70;99.90;;;;;;5094685;28;20032;-77
2021/10/25 11:03:04;;;;;;;19.92;9.13;;;11.70;99.90;;;;;;5093710;28;20107;-77
2021/10/25 11:05:36;;;;;;;22.30;9.40;;;11.70;99.90;;;;;;5092743;28;20385;-77
2021/10/25 11:08:04;;;;;;;17.85;8.57;;;11.70;99.90;;;;;;5092378;28;20031;-75
2021/10/25 11:10:32;;;;;;;21.02;10.15;;;11.70;99.90;;;;;;5093622;28;20020;-76
2021/10/25 11:13:02;;;;;;;21.83;9.87;;;11.70;99.90;;;;;;5093620;28;20389;-75
2021/10/25 11:15:36;;;;;;;23.58;10.25;;;11.70;99.90;;;;;;5092219;28;20032;-75
2021/10/25 11:18:02;;;;;;;24.55;10.75;;;11.70;99.90;;;;;;5092234;28;20101;-76
2021/10/25 11:20:28;;;;;;;23.42;10.63;;;11.60;99.90;;;;;;5093497;28;20012;-75
2021/10/25 11:23:05;;;;;;;22.00;11.32;;;11.70;99.90;;;;;;5093324;28;20021;-75
2021/10/25 11:25:44;;;;;;;23.73;11.05;;;11.70;99.90;;;;;;5093399;28;20016;-75
2021/10/25 11:28:14;;;;;;;;;;;11.80;99.90;;;;;;5092568;28;20192;-76
2021/10/25 11:30:40;;;;;;;28.00;11.48;;;11.80;99.90;;;;;;5094732;28;19907;-77
2021/10/25 11:33:05;;;;;;;23.27;10.02;;;11.90;99.90;;;;;;5095196;28;20027;-76
2021/10/25 11:35:31;;;;;;;22.13;10.65;;;11.90;99.90;;;;;;5093921;28;20024;-77
2021/10/25 11:38:02;;;;;;;25.70;9.93;;;12.00;99.90;;;;;;5093820;28;20028;-77
2021/10/25 11:40:28;;;;;;;23.23;10.55;;;12.00;99.90;;;;;;5095755;28;20373;-77
2021/10/25 11:42:59;;;;;;;20.83;10.30;;;12.00;99.90;;;;;;5095073;28;20047;-76
2021/10/25 11:45:25;;;;;;;27.42;11.77;;;12.10;99.90;;;;;;5098270;28;20059;-77
2021/10/25 11:47:52;;;;;;;22.85;10.13;;;12.00;99.90;;;;;;5096740;28;20028;-79
2021/10/25 11:50:30;;;;;;;36.20;11.10;;;12.00;99.90;;;;;;5098511;28;20038;-79
2021/10/25 11:53:03;;;;;;;24.13;11.27;;;12.00;99.90;;;;;;5097109;28;20020;-79
2021/10/25 11:55:33;;;;;;;23.38;11.05;;;12.00;99.90;;;;;;5097186;28;20020;-80
2021/10/25 11:58:02;;;;;;;20.88;10.90;;;12.50;99.90;;;;;;5098675;28;20042;-77
2021/10/25 12:00:34;;;;;;;18.73;10.70;;;12.00;99.90;;;;;;5095915;28;20016;-77
2021/10/25 12:03:10;;;;;;;19.50;10.07;;;12.10;99.90;;;;;;5095962;28;20027;-76
2021/10/25 12:05:36;;;;;;;23.13;10.95;;;12.10;99.90;;;;;;5097700;28;20012;-77
2021/10/25 12:08:03;;;;;;;21.75;10.25;;;12.10;99.90;;;;;;5097307;28;20024;-77
2021/10/25 12:10:30;;;;;;;21.08;9.95;;;12.20;99.90;;;;;;5097002;28;20020;-77
2021/10/25 12:12:59;;;;;;;19.77;10.43;;;12.10;99.90;;;;;;5096963;28;20024;-78
2021/10/25 12:15:26;;;;;;;23.58;10.63;;;12.20;99.90;;;;;;5097363;28;20020;-78
2021/10/25 12:17:57;;;;;;;23.17;11.90;;;12.20;99.90;;;;;;5096921;28;20024;-78
2021/10/25 12:20:28;;;;;;;22.05;10.02;;;12.20;99.90;;;;;;5097506;28;20096;-77
2021/10/25 12:23:08;;;;;;;20.95;11.00;;;12.20;99.90;;;;;;5096140;28;20047;-78
2021/10/25 12:25:36;;;;;;;19.20;9.85;;;12.20;99.90;;;;;;5095635;28;20024;-78
2021/10/25 12:28:20;;;;;;;20.30;9.70;;;12.20;99.90;;;;;;5096672;28;20514;-77
2021/10/25 12:30:50;;;;;;;20.45;10.80;;;12.20;99.90;;;;;;5097305;28;20036;-77
2021/10/25 12:33:23;;;;;;;19.73;10.88;;;12.20;99.90;;;;;;5095287;28;20120;-78
2021/10/25 12:35:50;;;;;;;17.98;9.77;;;12.20;99.90;;;;;;5096537;28;20024;-76
2021/10/25 12:38:18;;;;;;;19.05;10.43;;;12.30;99.90;;;;;;5096933;28;20028;-77
2021/10/25 12:40:48;;;;;;;23.97;11.60;;;12.40;99.90;;;;;;5096402;28;20024;-77
2021/10/25 12:43:16;;;;;;;21.33;10.80;;;12.50;99.90;;;;;;5095134;28;20108;-77
2021/10/25 12:45:55;;;;;;;21.25;11.68;;;12.60;99.90;;;;;;5095021;28;20028;-77
2021/10/25 12:48:22;;;;;;;17.42;10.10;;;12.70;99.90;;;;;;5096322;28;20024;-77
2021/10/25 12:50:50;;;;;;;19.63;9.82;;;12.80;99.90;;;;;;5096127;28;20058;-77
2021/10/25 12:53:21;;;;;;;20.27;9.07;;;12.90;99.90;;;;;;5096153;28;20027;-77
2021/10/25 12:55:55;;;;;;;18.23;9.07;;;12.90;99.90;;;;;;5095591;28;20587;-77
2021/10/25 12:58:23;;;;;;;21.98;10.45;;;12.90;99.90;;;;;;5095976;28;20020;-76
2021/10/25 13:00:49;;;;;;;20.05;10.68;;;12.90;99.90;;;;;;5095172;28;20541;-76
2021/10/25 13:03:15;;;;;;;19.40;9.45;;;12.90;99.90;;;;;;5094782;28;20047;-77
2021/10/25 13:05:44;;;;;;;17.80;10.05;;;12.90;99.90;;;;;;5096051;28;20046;-77
2021/10/25 13:08:10;;;;;;;21.48;9.60;;;12.90;99.90;;;;;;5095894;28;20031;-77
2021/10/25 13:10:43;;;;;;;18.77;9.32;;;12.90;99.90;;;;;;5094610;28;20020;-77
2021/10/25 13:13:14;;;;;;;20.05;11.13;;;12.90;99.90;;;;;;5096734;28;20020;-77
2021/10/25 13:15:42;;;;;;;21.50;9.70;;;12.80;99.90;;;;;;5096052;28;20024;-74
2021/10/25 13:18:10;;;;;;;21.45;10.23;;;12.90;99.90;;;;;;5095542;28;20028;-74
2021/10/25 13:20:41;;;;;;;18.00;10.20;;;12.90;99.90;;;;;;5094351;28;20052;-74
2021/10/25 13:23:09;;;;;;;15.90;9.65;;;12.80;99.90;;;;;;5095807;28;20358;-74
2021/10/25 13:25:36;;;;;;;22.67;10.77;;;12.80;99.90;;;;;;5095385;28;20442;-74
2021/10/25 13:28:04;;;;;;;19.38;9.82;;;12.70;99.90;;;;;;5095508;28;20020;-74
2021/10/25 13:30:30;;;;;;;16.90;9.73;;;12.70;99.90;;;;;;5095361;28;20076;-74
2021/10/25 13:32:57;;;;;;;21.73;10.13;;;12.70;99.90;;;;;;5095368;28;20473;-74
2021/10/25 13:35:23;;;;;;;16.60;10.20;;;12.80;99.90;;;;;;5093958;28;20023;-74
2021/10/25 13:37:52;;;;;;;18.23;9.85;;;12.80;99.90;;;;;;5095191;28;20028;-74
2021/10/25 13:40:20;;;;;;;15.63;9.27;;;12.80;99.90;;;;;;5095201;28;20027;-74
2021/10/25 13:42:46;;;;;;;16.55;8.88;;;12.90;99.90;;;;;;5093972;28;20017;-74
2021/10/25 13:45:13;;;;;;;18.38;9.68;;;13.00;99.90;;;;;;5095962;28;20342;-74
2021/10/25 13:47:38;;;;;;;21.23;9.45;;;13.00;99.90;;;;;;5093853;28;20452;-74
2021/10/25 13:50:05;;;;;;;14.43;9.18;;;13.10;99.90;;;;;;5095001;28;20070;-74
2021/10/25 13:52:30;;;;;;;17.77;9.73;;;13.10;99.90;;;;;;5093658;28;20028;-74
2021/10/25 13:54:57;;;;;;;19.15;9.73;;;13.20;99.90;;;;;;5094962;28;20495;-74
2021/10/25 13:57:27;;;;;;;15.60;8.88;;;13.20;99.90;;;;;;5094955;28;20024;-74
2021/10/25 13:59:53;;;;;;;18.90;8.88;;;13.20;99.90;;;;;;5095359;28;20473;-75
2021/10/25 14:02:28;;;;;;;16.05;8.60;;;13.10;99.90;;;;;;5094748;28;20067;-74
2021/10/25 14:04:57;;;;;;;20.55;9.68;;;13.10;99.90;;;;;;5094724;28;20016;-74
2021/10/25 14:07:29;;;;;;;16.60;10.15;;;13.00;99.90;;;;;;5093726;28;20024;-74
2021/10/25 14:09:59;;;;;;;19.27;8.95;;;13.00;99.90;;;;;;5094612;28;20024;-74
2021/10/25 14:12:27;;;;;;;17.48;9.70;;;12.90;99.90;;;;;;5094664;28;20121;-75
2021/10/25 14:15:02;;;;;;;18.00;9.60;;;12.90;99.90;;;;;;5093082;28;20047;-75
2021/10/25 14:17:28;;;;;;;19.00;9.38;;;12.80;99.90;;;;;;5093228;28;20518;-74
2021/10/25 14:19:53;;;;;;;19.98;10.00;;;12.80;99.90;;;;;;5094547;28;20020;-74
2021/10/25 14:22:19;;;;;;;18.52;10.35;;;12.80;99.90;;;;;;5094263;28;20027;-74
2021/10/25 14:24:45;;;;;;;20.40;11.23;;;12.80;99.90;;;;;;5094537;28;20020;-74
2021/10/25 14:27:11;;;;;;;20.00;10.52;;;12.80;99.90;;;;;;5095542;28;20024;-74
2021/10/25 14:29:37;;;;;;;18.85;10.70;;;12.80;99.90;;;;;;5098714;28;20119;-75
2021/10/25 14:32:05;;;;;;;20.63;10.38;;;12.80;99.90;;;;;;5097394;28;20060;-74